Nathaniel B. Palmer — WBP3210 — position and weather

sailwx.info

Track history (hours):
 
Tides and Currents Weather Stations Pressure Air Temp Water Temp Dewpoint Dewpoint Depression Visibility Wind Speed Wind Dir Waves Ship Positions

Oceanographic research ship Nathaniel B. Palmer (USA)

Contact: Ethan Norris, ethan.norris.contractor@usap.gov

Detailed information on ship capabilities available from University of Delaware's Ocean Information Center and ARCUS's ALIAS (Arctic Logistics Information and Support) project.

Owner: OFFSHORE SERVICE VESSELS, GALLIANO, LA. More information available from US FCC via Universal Licensing System and Coast Guard Vessel Documentation Center.

Last reported at 2015-Mar-06 14:00 UTC. Time now 2015-Mar-06 17:35 UTC.
Position S 75°36' E 169°06'.

Type: Other ship. MMSI: 366610000.

Wind from 340 at 18 knots

Barometer 993.5 mb
Air temperature -5.9 ° C
Water temperature 1.6 ° C

Date/timePositionNaut miles runAvg speedWind from/ knotsBaromVisibWave heightAir tempDewpointWater temp
2015-Mar-06 14:00S 75°36' E 169°06'7 1.9 340 / 18993.5 -5.9 1.6
2015-Mar-06 10:00S 75°36' E 169°36'15 7.5 340 / 13995.5 -5.2 1.5
2015-Mar-06 08:00S 75°36' E 168°36'28 3.5 110 / 13996.6 -6.2 1.6
2015-Mar-06 00:00S 75°30' E 166°48'11 5.3 300 / 23997.7 -7.3 1.8
2015-Mar-05 22:00S 75°30' E 166°06'3 1.5 310 / 21998.3 -7.9 1.9
2015-Mar-05 20:00S 75°30' E 165°54'9 2.3 320 / 19998.1 -9.3 1.9
2015-Mar-05 16:00S 75°30' E 166°30'46 5.7 280 / 13998.3 -7.4 1.8
2015-Mar-05 08:00S 76°12' E 165°18'9 2.1 090 / 4997.2 -5.5 1.5
2015-Mar-05 04:00S 76°12' E 165°54'24 6.0 300 / 2996.6 -5.8 1.8
2015-Mar-05 00:00S 75°54' E 167°00'6 3.1 240 / 9994.6 -5.4 1.8
2015-Mar-04 22:00S 76°00' E 166°54'12 6.0 210 / 8993.6 -5.8 1.8
2015-Mar-04 20:00S 76°12' E 167°00'18 9.1 200 / 7992.2 -6.3 1.2
2015-Mar-04 18:00S 75°54' E 166°48'1 0.7 240 / 5990.9 -7.8 1.7
2015-Mar-04 16:00S 75°54' E 166°54'13 1.6 230 / 3989.4 -7.8 1.8
2015-Mar-04 08:00S 76°06' E 167°12'6 0.8 170 / 10983.9 -8.5 1.7
2015-Mar-04 00:00S 76°12' E 167°18'6 3.0 300 / 20978.1 -8.2 1.4
2015-Mar-03 22:00S 76°18' E 167°18'13 6.4 300 / 18977.8 -8.8 1.5
2015-Mar-03 20:00S 76°12' E 168°06'7 3.6 310 / 15977.0 -9.2 1.7
2015-Mar-03 18:00S 76°12' E 168°36'22 1.6 310 / 11976.2 -9.1 1.5
2015-Mar-03 04:00S 76°06' E 170°06'14 3.6 280 / 21975.1 -7.0 1.3
2015-Mar-03 00:00S 76°00' E 171°00'1 0.7 190 / 8977.3 -8.1 1.2
2015-Mar-02 22:00S 76°00' E 170°54'4 2.2 180 / 9977.9 -8.4 1.3
2015-Mar-02 20:00S 76°00' E 170°36'13 6.5 160 / 14978.9 -8.8 1.3
2015-Mar-02 18:00S 76°06' E 169°48'27 2.0 150 / 12979.8 -8.5 1.3
2015-Mar-02 04:00S 75°42' E 170°42'35 8.8 130 / 8985.8 -7.8 1.2
2015-Mar-02 00:00S 75°12' E 171°54'20 9.8 160 / 13987.2 -7.5 1.4
2015-Mar-01 22:00S 74°54' E 172°24'13 6.4 160 / 12987.6 -7.1 1.4
2015-Mar-01 20:00S 74°42' E 172°42'0 0.0 160 / 11988.4 -6.8 1.3
2015-Mar-01 18:00S 74°42' E 172°42'20 9.8 180 / 7988.9 -6.3 1.3
2015-Mar-01 16:00S 74°24' E 173°12'7 3.4 170 / 11988.7 -6.6 1.4
2015-Mar-01 14:00S 74°18' E 173°24'0 0.0 140 / 8989.4 -5.5 1.3
2015-Mar-01 12:00S 74°18' E 173°24'13 6.5 130 / 8989.6 -6.4 1.3
2015-Mar-01 10:00S 74°30' E 173°06'14 7.2 150 / 8989.9 -6.3 1.2
2015-Mar-01 08:00S 74°42' E 172°36'39 9.8 160 / 11989.9 -5.6 1.2
2015-Mar-01 04:00S 75°18' E 171°36'20 9.8 140 / 11990.4 -6.7 1.3
2015-Mar-01 02:00S 75°36' E 171°06'12 6.0 220 / 9990.6 -7.2 1.2
2015-Mar-01 00:00S 75°48' E 171°06'7 3.7 130 / 16990.6 -7.5 1.1
2015-Feb-28 22:00S 75°54' E 170°48'1 0.7 110 / 15989.9 -5.4 1.2
2015-Feb-28 20:00S 75°54' E 170°42'6 3.0 090 / 11989.7 -5.0 1.2
2015-Feb-28 18:00S 76°00' E 170°42'4 2.2 190 / 8989.2 -4.8 1.2
2015-Feb-28 16:00S 76°00' E 170°24'19 2.4 300 / 13988.6 -5.5 1.2
2015-Feb-28 08:00S 75°42' E 170°54'7 1.9 240 / 3987.8 -3.9 1.1
2015-Feb-28 04:00S 75°48' E 170°36'8 4.2 290 / 6987.8 -4.0 1.1
2015-Feb-28 02:00S 75°42' E 171°00'15 7.4 310 / 3988.3 -3.6 1.1
2015-Feb-28 00:00S 75°54' E 170°24'14 7.2 090 / 18988.6 -4.3 1.2
2015-Feb-27 22:00S 76°00' E 171°18'20 9.9 080 / 9989.7 -4.6 1.1
2015-Feb-27 20:00S 76°06' E 172°36'19 9.4 100 / 7990.4 -3.4 1.5
2015-Feb-27 18:00S 76°06' E 173°54'44 4.4 140 / 4990.4 -5.1 1.6
2015-Feb-27 08:00S 75°54' E 176°48'0 0.0 010 / 10988.9 -2.8 1.4
2015-Feb-27 04:00S 75°54' E 176°48'9 4.4 340 / 9987.7 -3.0 1.5
2015-Feb-27 02:00S 75°54' E 176°12'8 4.2 330 / 14987.3 -3.2 1.5
2015-Feb-27 00:00S 76°00' E 175°48'8 4.2 350 / 13986.5 -3.4 1.4
2015-Feb-26 22:00S 75°54' E 176°12'18 8.8 350 / 15986.5 -3.8 1.5
2015-Feb-26 20:00S 75°54' E 177°24'35 8.9 360 / 15986.3 -3.4 1.4
2015-Feb-26 16:00S 76°00' E 175°00'25 4.2 050 / 19984.4 -4.6 1.5
2015-Feb-26 10:00S 75°48' E 176°30'6 3.1 080 / 8985.5 -6.7 1.5
2015-Feb-26 08:00S 75°54' E 176°36'18 3.0 270 / 3985.6 -7.1 1.5
2015-Feb-26 02:00S 75°36' E 176°30'6 3.1 200 / 11983.9 -7.9 1.5
2015-Feb-26 00:00S 75°30' E 176°24'12 6.2 230 / 9983.0 -7.3 1.5
2015-Feb-25 22:00S 75°18' E 176°12'0 0.0 250 / 6982.1 -7.2 1.5
2015-Feb-25 20:00S 75°18' E 176°12'0 0.0 170 / 11981.2 -7.0 1.5
2015-Feb-25 18:00S 75°18' E 176°12'19 9.3 200 / 9980.1 -7.3 1.5
2015-Feb-25 16:00S 75°36' E 176°30'21 3.5 190 / 14978.9 -7.6 1.5
2015-Feb-25 10:00S 75°54' E 177°12'   180 / 26975.4 -8.1 1.3
Track history (hours):
 
Tides and Currents Weather Stations Pressure Air Temp Water Temp Dewpoint Dewpoint Depression Visibility Wind Speed Wind Dir Waves Ship Positions

Oceanographic research ship Nathaniel B. Palmer (USA)

Contact: Ethan Norris, ethan.norris.contractor@usap.gov

Detailed information on ship capabilities available from University of Delaware's Ocean Information Center and ARCUS's ALIAS (Arctic Logistics Information and Support) project.

Owner: OFFSHORE SERVICE VESSELS, GALLIANO, LA. More information available from US FCC via Universal Licensing System and Coast Guard Vessel Documentation Center.

Last reported at 2015-Mar-06 14:00 UTC. Time now 2015-Mar-06 17:35 UTC.
Position S 75°36' E 169°06'.

Type: Other ship. MMSI: 366610000.

Wind from 340 at 18 knots

Barometer 993.5 mb
Air temperature -5.9 ° C
Water temperature 1.6 ° C

Date/timePositionNaut miles runAvg speedWind from/ knotsBaromVisibWave heightAir tempDewpointWater temp
2015-Mar-06 14:00S 75°36' E 169°06'7 1.9 340 / 18993.5 -5.9 1.6
2015-Mar-06 10:00S 75°36' E 169°36'15 7.5 340 / 13995.5 -5.2 1.5
2015-Mar-06 08:00S 75°36' E 168°36'28 3.5 110 / 13996.6 -6.2 1.6
2015-Mar-06 00:00S 75°30' E 166°48'11 5.3 300 / 23997.7 -7.3 1.8
2015-Mar-05 22:00S 75°30' E 166°06'3 1.5 310 / 21998.3 -7.9 1.9
2015-Mar-05 20:00S 75°30' E 165°54'9 2.3 320 / 19998.1 -9.3 1.9
2015-Mar-05 16:00S 75°30' E 166°30'46 5.7 280 / 13998.3 -7.4 1.8
2015-Mar-05 08:00S 76°12' E 165°18'9 2.1 090 / 4997.2 -5.5 1.5
2015-Mar-05 04:00S 76°12' E 165°54'24 6.0 300 / 2996.6 -5.8 1.8
2015-Mar-05 00:00S 75°54' E 167°00'6 3.1 240 / 9994.6 -5.4 1.8
2015-Mar-04 22:00S 76°00' E 166°54'12 6.0 210 / 8993.6 -5.8 1.8
2015-Mar-04 20:00S 76°12' E 167°00'18 9.1 200 / 7992.2 -6.3 1.2
2015-Mar-04 18:00S 75°54' E 166°48'1 0.7 240 / 5990.9 -7.8 1.7
2015-Mar-04 16:00S 75°54' E 166°54'13 1.6 230 / 3989.4 -7.8 1.8
2015-Mar-04 08:00S 76°06' E 167°12'6 0.8 170 / 10983.9 -8.5 1.7
2015-Mar-04 00:00S 76°12' E 167°18'6 3.0 300 / 20978.1 -8.2 1.4
2015-Mar-03 22:00S 76°18' E 167°18'13 6.4 300 / 18977.8 -8.8 1.5
2015-Mar-03 20:00S 76°12' E 168°06'7 3.6 310 / 15977.0 -9.2 1.7
2015-Mar-03 18:00S 76°12' E 168°36'22 1.6 310 / 11976.2 -9.1 1.5
2015-Mar-03 04:00S 76°06' E 170°06'14 3.6 280 / 21975.1 -7.0 1.3
2015-Mar-03 00:00S 76°00' E 171°00'1 0.7 190 / 8977.3 -8.1 1.2
2015-Mar-02 22:00S 76°00' E 170°54'4 2.2 180 / 9977.9 -8.4 1.3
2015-Mar-02 20:00S 76°00' E 170°36'13 6.5 160 / 14978.9 -8.8 1.3
2015-Mar-02 18:00S 76°06' E 169°48'27 2.0 150 / 12979.8 -8.5 1.3
2015-Mar-02 04:00S 75°42' E 170°42'35 8.8 130 / 8985.8 -7.8 1.2
2015-Mar-02 00:00S 75°12' E 171°54'20 9.8 160 / 13987.2 -7.5 1.4
2015-Mar-01 22:00S 74°54' E 172°24'13 6.4 160 / 12987.6 -7.1 1.4
2015-Mar-01 20:00S 74°42' E 172°42'0 0.0 160 / 11988.4 -6.8 1.3
2015-Mar-01 18:00S 74°42' E 172°42'20 9.8 180 / 7988.9 -6.3 1.3
2015-Mar-01 16:00S 74°24' E 173°12'7 3.4 170 / 11988.7 -6.6 1.4
2015-Mar-01 14:00S 74°18' E 173°24'0 0.0 140 / 8989.4 -5.5 1.3
2015-Mar-01 12:00S 74°18' E 173°24'13 6.5 130 / 8989.6 -6.4 1.3
2015-Mar-01 10:00S 74°30' E 173°06'14 7.2 150 / 8989.9 -6.3 1.2
2015-Mar-01 08:00S 74°42' E 172°36'39 9.8 160 / 11989.9 -5.6 1.2
2015-Mar-01 04:00S 75°18' E 171°36'20 9.8 140 / 11990.4 -6.7 1.3
2015-Mar-01 02:00S 75°36' E 171°06'12 6.0 220 / 9990.6 -7.2 1.2
2015-Mar-01 00:00S 75°48' E 171°06'7 3.7 130 / 16990.6 -7.5 1.1
2015-Feb-28 22:00S 75°54' E 170°48'1 0.7 110 / 15989.9 -5.4 1.2
2015-Feb-28 20:00S 75°54' E 170°42'6 3.0 090 / 11989.7 -5.0 1.2
2015-Feb-28 18:00S 76°00' E 170°42'4 2.2 190 / 8989.2 -4.8 1.2
2015-Feb-28 16:00S 76°00' E 170°24'19 2.4 300 / 13988.6 -5.5 1.2
2015-Feb-28 08:00S 75°42' E 170°54'7 1.9 240 / 3987.8 -3.9 1.1
2015-Feb-28 04:00S 75°48' E 170°36'8 4.2 290 / 6987.8 -4.0 1.1
2015-Feb-28 02:00S 75°42' E 171°00'15 7.4 310 / 3988.3 -3.6 1.1
2015-Feb-28 00:00S 75°54' E 170°24'14 7.2 090 / 18988.6 -4.3 1.2
2015-Feb-27 22:00S 76°00' E 171°18'20 9.9 080 / 9989.7 -4.6 1.1
2015-Feb-27 20:00S 76°06' E 172°36'19 9.4 100 / 7990.4 -3.4 1.5
2015-Feb-27 18:00S 76°06' E 173°54'44 4.4 140 / 4990.4 -5.1 1.6
2015-Feb-27 08:00S 75°54' E 176°48'0 0.0 010 / 10988.9 -2.8 1.4
2015-Feb-27 04:00S 75°54' E 176°48'9 4.4 340 / 9987.7 -3.0 1.5
2015-Feb-27 02:00S 75°54' E 176°12'8 4.2 330 / 14987.3 -3.2 1.5
2015-Feb-27 00:00S 76°00' E 175°48'8 4.2 350 / 13986.5 -3.4 1.4
2015-Feb-26 22:00S 75°54' E 176°12'18 8.8 350 / 15986.5 -3.8 1.5
2015-Feb-26 20:00S 75°54' E 177°24'35 8.9 360 / 15986.3 -3.4 1.4
2015-Feb-26 16:00S 76°00' E 175°00'25 4.2 050 / 19984.4 -4.6 1.5
2015-Feb-26 10:00S 75°48' E 176°30'6 3.1 080 / 8985.5 -6.7 1.5
2015-Feb-26 08:00S 75°54' E 176°36'18 3.0 270 / 3985.6 -7.1 1.5
2015-Feb-26 02:00S 75°36' E 176°30'6 3.1 200 / 11983.9 -7.9 1.5
2015-Feb-26 00:00S 75°30' E 176°24'12 6.2 230 / 9983.0 -7.3 1.5
2015-Feb-25 22:00S 75°18' E 176°12'0 0.0 250 / 6982.1 -7.2 1.5
2015-Feb-25 20:00S 75°18' E 176°12'0 0.0 170 / 11981.2 -7.0 1.5
2015-Feb-25 18:00S 75°18' E 176°12'19 9.3 200 / 9980.1 -7.3 1.5
2015-Feb-25 16:00S 75°36' E 176°30'21 3.5 190 / 14978.9 -7.6 1.5
2015-Feb-25 10:00S 75°54' E 177°12'   180 / 26975.4 -8.1 1.3

Dump ship's entire track history